sensor_id;sensor_type;location;lat;lon;timestamp;P1;durP1;ratioP1;P2;durP2;ratioP2
17638;SDS011;8938;53.546;9.954;2023-11-22T00:00:37;0.60;;;0.60;;
17638;SDS011;8938;53.546;9.954;2023-11-22T00:03:03;0.70;;;0.70;;
17638;SDS011;8938;53.546;9.954;2023-11-22T00:05:29;0.70;;;0.70;;
17638;SDS011;8938;53.546;9.954;2023-11-22T00:07:55;0.67;;;0.67;;
17638;SDS011;8938;53.546;9.954;2023-11-22T00:10:22;0.70;;;0.70;;
17638;SDS011;8938;53.546;9.954;2023-11-22T00:12:48;0.60;;;0.60;;
17638;SDS011;8938;53.546;9.954;2023-11-22T00:15:14;0.67;;;0.67;;
17638;SDS011;8938;53.546;9.954;2023-11-22T00:17:43;0.63;;;0.63;;
17638;SDS011;8938;53.546;9.954;2023-11-22T00:20:09;0.63;;;0.63;;
17638;SDS011;8938;53.546;9.954;2023-11-22T00:22:35;0.87;;;0.87;;
17638;SDS011;8938;53.546;9.954;2023-11-22T00:25:01;0.63;;;0.63;;
17638;SDS011;8938;53.546;9.954;2023-11-22T00:27:28;0.70;;;0.70;;
17638;SDS011;8938;53.546;9.954;2023-11-22T00:29:57;0.55;;;0.55;;
17638;SDS011;8938;53.546;9.954;2023-11-22T00:32:23;0.60;;;0.60;;
17638;SDS011;8938;53.546;9.954;2023-11-22T00:34:49;0.60;;;0.60;;
17638;SDS011;8938;53.546;9.954;2023-11-22T00:37:15;0.40;;;0.40;;
17638;SDS011;8938;53.546;9.954;2023-11-22T00:39:41;0.70;;;0.70;;
17638;SDS011;8938;53.546;9.954;2023-11-22T00:42:07;0.70;;;0.70;;
17638;SDS011;8938;53.546;9.954;2023-11-22T00:44:33;0.70;;;0.70;;
17638;SDS011;8938;53.546;9.954;2023-11-22T00:47:01;0.70;;;0.70;;
17638;SDS011;8938;53.546;9.954;2023-11-22T00:49:26;0.70;;;0.70;;
17638;SDS011;8938;53.546;9.954;2023-11-22T00:51:52;1.03;;;1.03;;
17638;SDS011;8938;53.546;9.954;2023-11-22T00:54:17;1.33;;;1.30;;
17638;SDS011;8938;53.546;9.954;2023-11-22T00:56:45;1.60;;;1.50;;
17638;SDS011;8938;53.546;9.954;2023-11-22T00:59:11;1.13;;;1.13;;
17638;SDS011;8938;53.546;9.954;2023-11-22T01:01:37;1.13;;;1.13;;
17638;SDS011;8938;53.546;9.954;2023-11-22T01:04:03;1.00;;;1.00;;
17638;SDS011;8938;53.546;9.954;2023-11-22T01:06:29;1.30;;;1.30;;
17638;SDS011;8938;53.546;9.954;2023-11-22T01:08:57;1.07;;;1.07;;
17638;SDS011;8938;53.546;9.954;2023-11-22T01:11:22;1.50;;;1.40;;
17638;SDS011;8938;53.546;9.954;2023-11-22T01:13:48;1.43;;;1.33;;
17638;SDS011;8938;53.546;9.954;2023-11-22T01:16:14;1.33;;;1.23;;
17638;SDS011;8938;53.546;9.954;2023-11-22T01:18:40;2.03;;;1.70;;
17638;SDS011;8938;53.546;9.954;2023-11-22T01:21:07;1.40;;;1.30;;
17638;SDS011;8938;53.546;9.954;2023-11-22T01:23:33;2.23;;;1.90;;
17638;SDS011;8938;53.546;9.954;2023-11-22T01:25:59;2.33;;;1.90;;
17638;SDS011;8938;53.546;9.954;2023-11-22T01:28:25;2.77;;;2.07;;
17638;SDS011;8938;53.546;9.954;2023-11-22T01:30:52;2.53;;;2.00;;
17638;SDS011;8938;53.546;9.954;2023-11-22T01:33:21;1.60;;;1.30;;
17638;SDS011;8938;53.546;9.954;2023-11-22T01:35:47;2.27;;;1.77;;
17638;SDS011;8938;53.546;9.954;2023-11-22T01:38:13;2.07;;;1.60;;
17638;SDS011;8938;53.546;9.954;2023-11-22T01:40:48;1.20;;;1.10;;
17638;SDS011;8938;53.546;9.954;2023-11-22T01:43:18;1.63;;;1.33;;
17638;SDS011;8938;53.546;9.954;2023-11-22T01:45:46;2.23;;;1.60;;
17638;SDS011;8938;53.546;9.954;2023-11-22T01:48:12;2.77;;;2.07;;
17638;SDS011;8938;53.546;9.954;2023-11-22T01:50:41;2.63;;;1.90;;
17638;SDS011;8938;53.546;9.954;2023-11-22T01:53:08;1.90;;;1.47;;
17638;SDS011;8938;53.546;9.954;2023-11-22T01:55:37;2.20;;;1.60;;
17638;SDS011;8938;53.546;9.954;2023-11-22T01:58:04;4.30;;;2.80;;
17638;SDS011;8938;53.546;9.954;2023-11-22T02:00:32;2.17;;;1.57;;
17638;SDS011;8938;53.546;9.954;2023-11-22T02:03:01;3.37;;;1.97;;
17638;SDS011;8938;53.546;9.954;2023-11-22T02:05:27;1.83;;;1.47;;
17638;SDS011;8938;53.546;9.954;2023-11-22T02:07:53;1.40;;;1.23;;
17638;SDS011;8938;53.546;9.954;2023-11-22T02:10:19;3.27;;;2.17;;
17638;SDS011;8938;53.546;9.954;2023-11-22T02:12:45;3.87;;;2.97;;
17638;SDS011;8938;53.546;9.954;2023-11-22T02:15:11;1.73;;;1.37;;
17638;SDS011;8938;53.546;9.954;2023-11-22T02:17:37;2.77;;;1.97;;
17638;SDS011;8938;53.546;9.954;2023-11-22T02:20:04;2.23;;;1.80;;
17638;SDS011;8938;53.546;9.954;2023-11-22T02:22:34;4.60;;;3.37;;
17638;SDS011;8938;53.546;9.954;2023-11-22T02:25:07;2.63;;;1.80;;
17638;SDS011;8938;53.546;9.954;2023-11-22T02:27:32;2.53;;;1.73;;
17638;SDS011;8938;53.546;9.954;2023-11-22T02:29:58;2.90;;;1.93;;
17638;SDS011;8938;53.546;9.954;2023-11-22T02:32:23;1.43;;;1.20;;
17638;SDS011;8938;53.546;9.954;2023-11-22T02:34:49;2.33;;;1.63;;
17638;SDS011;8938;53.546;9.954;2023-11-22T02:37:15;1.67;;;1.40;;
17638;SDS011;8938;53.546;9.954;2023-11-22T02:39:54;2.07;;;1.53;;
17638;SDS011;8938;53.546;9.954;2023-11-22T02:42:32;4.97;;;3.50;;
17638;SDS011;8938;53.546;9.954;2023-11-22T02:44:59;2.77;;;2.07;;
17638;SDS011;8938;53.546;9.954;2023-11-22T02:47:25;2.10;;;1.70;;
17638;SDS011;8938;53.546;9.954;2023-11-22T02:49:51;2.93;;;1.97;;
17638;SDS011;8938;53.546;9.954;2023-11-22T02:52:17;2.27;;;1.83;;
17638;SDS011;8938;53.546;9.954;2023-11-22T02:54:43;1.80;;;1.40;;
17638;SDS011;8938;53.546;9.954;2023-11-22T02:57:13;3.10;;;2.27;;
17638;SDS011;8938;53.546;9.954;2023-11-22T02:59:42;2.17;;;1.60;;
17638;SDS011;8938;53.546;9.954;2023-11-22T03:02:09;1.90;;;1.53;;
17638;SDS011;8938;53.546;9.954;2023-11-22T03:04:35;2.23;;;1.80;;
17638;SDS011;8938;53.546;9.954;2023-11-22T03:07:00;2.67;;;2.07;;
17638;SDS011;8938;53.546;9.954;2023-11-22T03:09:26;2.23;;;1.73;;
17638;SDS011;8938;53.546;9.954;2023-11-22T03:11:52;2.63;;;1.93;;
17638;SDS011;8938;53.546;9.954;2023-11-22T03:14:18;1.50;;;1.30;;
17638;SDS011;8938;53.546;9.954;2023-11-22T03:16:44;2.60;;;1.87;;
17638;SDS011;8938;53.546;9.954;2023-11-22T03:19:10;2.90;;;2.03;;
17638;SDS011;8938;53.546;9.954;2023-11-22T03:21:38;2.40;;;1.80;;
17638;SDS011;8938;53.546;9.954;2023-11-22T03:24:04;1.70;;;1.60;;
17638;SDS011;8938;53.546;9.954;2023-11-22T03:26:30;2.03;;;1.60;;
17638;SDS011;8938;53.546;9.954;2023-11-22T03:28:56;1.23;;;1.10;;
17638;SDS011;8938;53.546;9.954;2023-11-22T03:31:22;1.37;;;1.13;;
17638;SDS011;8938;53.546;9.954;2023-11-22T03:33:47;1.80;;;1.40;;
17638;SDS011;8938;53.546;9.954;2023-11-22T03:36:13;2.13;;;1.60;;
17638;SDS011;8938;53.546;9.954;2023-11-22T03:38:39;2.57;;;1.83;;
17638;SDS011;8938;53.546;9.954;2023-11-22T03:41:05;2.67;;;1.93;;
17638;SDS011;8938;53.546;9.954;2023-11-22T03:43:30;1.57;;;1.27;;
17638;SDS011;8938;53.546;9.954;2023-11-22T03:45:56;2.20;;;1.60;;
17638;SDS011;8938;53.546;9.954;2023-11-22T03:48:22;1.93;;;1.53;;
17638;SDS011;8938;53.546;9.954;2023-11-22T03:50:50;1.93;;;1.50;;
17638;SDS011;8938;53.546;9.954;2023-11-22T03:53:16;1.80;;;1.47;;
17638;SDS011;8938;53.546;9.954;2023-11-22T03:55:43;2.23;;;1.67;;
17638;SDS011;8938;53.546;9.954;2023-11-22T03:58:09;2.57;;;1.90;;
17638;SDS011;8938;53.546;9.954;2023-11-22T04:00:35;1.43;;;1.27;;
17638;SDS011;8938;53.546;9.954;2023-11-22T04:03:01;2.33;;;1.83;;
17638;SDS011;8938;53.546;9.954;2023-11-22T04:05:27;2.57;;;1.83;;
17638;SDS011;8938;53.546;9.954;2023-11-22T04:07:53;1.33;;;1.23;;
17638;SDS011;8938;53.546;9.954;2023-11-22T04:10:21;1.60;;;1.33;;
17638;SDS011;8938;53.546;9.954;2023-11-22T04:12:47;2.93;;;2.30;;
17638;SDS011;8938;53.546;9.954;2023-11-22T04:15:13;2.87;;;1.90;;
17638;SDS011;8938;53.546;9.954;2023-11-22T04:17:40;7.63;;;4.97;;
17638;SDS011;8938;53.546;9.954;2023-11-22T04:20:09;0.80;;;0.80;;
17638;SDS011;8938;53.546;9.954;2023-11-22T04:22:39;1.43;;;1.27;;
17638;SDS011;8938;53.546;9.954;2023-11-22T04:25:05;2.13;;;1.60;;
17638;SDS011;8938;53.546;9.954;2023-11-22T04:27:33;1.80;;;1.40;;
17638;SDS011;8938;53.546;9.954;2023-11-22T04:29:59;2.20;;;1.80;;
17638;SDS011;8938;53.546;9.954;2023-11-22T04:32:25;1.43;;;1.30;;
17638;SDS011;8938;53.546;9.954;2023-11-22T04:34:51;2.53;;;2.00;;
17638;SDS011;8938;53.546;9.954;2023-11-22T04:37:17;1.23;;;1.13;;
17638;SDS011;8938;53.546;9.954;2023-11-22T04:39:43;2.40;;;1.70;;
17638;SDS011;8938;53.546;9.954;2023-11-22T04:42:09;1.87;;;1.47;;
17638;SDS011;8938;53.546;9.954;2023-11-22T04:44:35;1.00;;;0.90;;
17638;SDS011;8938;53.546;9.954;2023-11-22T04:47:01;1.47;;;1.27;;
17638;SDS011;8938;53.546;9.954;2023-11-22T04:49:26;1.97;;;1.53;;
17638;SDS011;8938;53.546;9.954;2023-11-22T04:51:52;1.67;;;1.43;;
17638;SDS011;8938;53.546;9.954;2023-11-22T04:54:18;1.97;;;1.63;;
17638;SDS011;8938;53.546;9.954;2023-11-22T04:56:44;2.13;;;1.63;;
17638;SDS011;8938;53.546;9.954;2023-11-22T04:59:10;1.63;;;1.30;;
17638;SDS011;8938;53.546;9.954;2023-11-22T05:01:35;2.53;;;1.80;;
17638;SDS011;8938;53.546;9.954;2023-11-22T05:04:01;1.87;;;1.37;;
17638;SDS011;8938;53.546;9.954;2023-11-22T05:06:27;1.10;;;0.97;;
17638;SDS011;8938;53.546;9.954;2023-11-22T05:08:54;2.77;;;1.97;;
17638;SDS011;8938;53.546;9.954;2023-11-22T05:11:20;3.30;;;2.03;;
17638;SDS011;8938;53.546;9.954;2023-11-22T05:13:46;2.40;;;1.83;;
17638;SDS011;8938;53.546;9.954;2023-11-22T05:16:12;1.70;;;1.40;;
17638;SDS011;8938;53.546;9.954;2023-11-22T05:18:38;6.03;;;4.77;;
17638;SDS011;8938;53.546;9.954;2023-11-22T05:21:04;2.90;;;2.00;;
17638;SDS011;8938;53.546;9.954;2023-11-22T05:23:30;3.00;;;2.10;;
17638;SDS011;8938;53.546;9.954;2023-11-22T05:26:02;2.50;;;1.83;;
17638;SDS011;8938;53.546;9.954;2023-11-22T05:28:30;3.10;;;2.27;;
17638;SDS011;8938;53.546;9.954;2023-11-22T05:30:56;2.87;;;2.10;;
17638;SDS011;8938;53.546;9.954;2023-11-22T05:33:21;2.63;;;1.73;;
17638;SDS011;8938;53.546;9.954;2023-11-22T05:35:48;2.97;;;2.03;;
17638;SDS011;8938;53.546;9.954;2023-11-22T05:38:14;3.13;;;2.37;;
17638;SDS011;8938;53.546;9.954;2023-11-22T05:40:40;2.33;;;1.70;;
17638;SDS011;8938;53.546;9.954;2023-11-22T05:43:07;2.10;;;1.40;;
17638;SDS011;8938;53.546;9.954;2023-11-22T05:45:34;1.93;;;1.50;;
17638;SDS011;8938;53.546;9.954;2023-11-22T05:48:00;3.43;;;2.33;;
17638;SDS011;8938;53.546;9.954;2023-11-22T05:50:26;1.93;;;1.43;;
17638;SDS011;8938;53.546;9.954;2023-11-22T05:52:52;2.43;;;1.50;;
17638;SDS011;8938;53.546;9.954;2023-11-22T05:55:18;1.77;;;1.30;;
17638;SDS011;8938;53.546;9.954;2023-11-22T05:57:44;3.57;;;2.27;;
17638;SDS011;8938;53.546;9.954;2023-11-22T06:00:10;1.40;;;1.17;;
17638;SDS011;8938;53.546;9.954;2023-11-22T06:02:37;1.60;;;1.40;;
17638;SDS011;8938;53.546;9.954;2023-11-22T06:05:03;2.83;;;1.90;;
17638;SDS011;8938;53.546;9.954;2023-11-22T06:07:30;1.97;;;1.40;;
17638;SDS011;8938;53.546;9.954;2023-11-22T06:09:56;3.63;;;2.27;;
17638;SDS011;8938;53.546;9.954;2023-11-22T06:12:22;2.03;;;1.50;;
17638;SDS011;8938;53.546;9.954;2023-11-22T06:14:48;2.30;;;1.70;;
17638;SDS011;8938;53.546;9.954;2023-11-22T06:17:14;2.40;;;1.70;;
17638;SDS011;8938;53.546;9.954;2023-11-22T06:19:40;1.90;;;1.30;;
17638;SDS011;8938;53.546;9.954;2023-11-22T06:22:07;2.17;;;1.67;;
17638;SDS011;8938;53.546;9.954;2023-11-22T06:24:32;1.57;;;1.30;;
17638;SDS011;8938;53.546;9.954;2023-11-22T06:27:00;2.63;;;1.93;;
17638;SDS011;8938;53.546;9.954;2023-11-22T06:29:26;1.83;;;1.43;;
17638;SDS011;8938;53.546;9.954;2023-11-22T06:31:54;1.70;;;1.40;;
17638;SDS011;8938;53.546;9.954;2023-11-22T06:34:20;1.00;;;0.90;;
17638;SDS011;8938;53.546;9.954;2023-11-22T06:36:45;2.33;;;1.67;;
17638;SDS011;8938;53.546;9.954;2023-11-22T06:39:11;2.67;;;1.70;;
17638;SDS011;8938;53.546;9.954;2023-11-22T06:41:39;3.13;;;2.10;;
17638;SDS011;8938;53.546;9.954;2023-11-22T06:44:06;2.17;;;1.57;;
17638;SDS011;8938;53.546;9.954;2023-11-22T06:46:32;3.47;;;2.17;;
17638;SDS011;8938;53.546;9.954;2023-11-22T06:48:57;2.60;;;1.87;;
17638;SDS011;8938;53.546;9.954;2023-11-22T06:51:23;3.70;;;2.20;;
17638;SDS011;8938;53.546;9.954;2023-11-22T06:53:49;1.93;;;1.40;;
17638;SDS011;8938;53.546;9.954;2023-11-22T06:56:17;2.43;;;1.80;;
17638;SDS011;8938;53.546;9.954;2023-11-22T06:58:43;3.23;;;2.10;;
17638;SDS011;8938;53.546;9.954;2023-11-22T07:01:09;3.17;;;2.20;;
17638;SDS011;8938;53.546;9.954;2023-11-22T07:03:35;2.03;;;1.43;;
17638;SDS011;8938;53.546;9.954;2023-11-22T07:06:02;2.27;;;1.70;;
17638;SDS011;8938;53.546;9.954;2023-11-22T07:08:29;2.20;;;1.70;;
17638;SDS011;8938;53.546;9.954;2023-11-22T07:10:55;2.63;;;1.80;;
17638;SDS011;8938;53.546;9.954;2023-11-22T07:13:22;0.90;;;0.90;;
17638;SDS011;8938;53.546;9.954;2023-11-22T07:15:48;1.90;;;1.80;;
17638;SDS011;8938;53.546;9.954;2023-11-22T07:18:15;2.13;;;2.03;;
17638;SDS011;8938;53.546;9.954;2023-11-22T07:20:40;1.90;;;1.80;;
17638;SDS011;8938;53.546;9.954;2023-11-22T07:23:07;1.57;;;1.47;;
17638;SDS011;8938;53.546;9.954;2023-11-22T07:25:38;1.27;;;1.20;;
17638;SDS011;8938;53.546;9.954;2023-11-22T07:28:04;2.30;;;2.17;;
17638;SDS011;8938;53.546;9.954;2023-11-22T07:30:30;1.63;;;1.53;;
17638;SDS011;8938;53.546;9.954;2023-11-22T07:32:58;1.67;;;1.57;;
17638;SDS011;8938;53.546;9.954;2023-11-22T07:35:24;1.50;;;1.40;;
17638;SDS011;8938;53.546;9.954;2023-11-22T07:37:53;1.83;;;1.73;;
17638;SDS011;8938;53.546;9.954;2023-11-22T07:40:19;1.40;;;1.40;;
17638;SDS011;8938;53.546;9.954;2023-11-22T07:42:47;0.80;;;0.80;;
17638;SDS011;8938;53.546;9.954;2023-11-22T07:45:13;1.27;;;1.27;;
17638;SDS011;8938;53.546;9.954;2023-11-22T07:47:39;1.77;;;1.67;;
17638;SDS011;8938;53.546;9.954;2023-11-22T07:50:09;1.30;;;1.30;;
17638;SDS011;8938;53.546;9.954;2023-11-22T07:52:38;1.60;;;1.50;;
17638;SDS011;8938;53.546;9.954;2023-11-22T07:55:06;1.70;;;1.60;;
17638;SDS011;8938;53.546;9.954;2023-11-22T07:57:35;1.53;;;1.43;;
17638;SDS011;8938;53.546;9.954;2023-11-22T08:00:01;1.57;;;1.47;;
17638;SDS011;8938;53.546;9.954;2023-11-22T08:02:31;1.70;;;1.60;;
17638;SDS011;8938;53.546;9.954;2023-11-22T08:04:58;1.60;;;1.50;;
17638;SDS011;8938;53.546;9.954;2023-11-22T08:07:26;1.53;;;1.43;;
17638;SDS011;8938;53.546;9.954;2023-11-22T08:09:53;1.40;;;1.40;;
17638;SDS011;8938;53.546;9.954;2023-11-22T08:12:18;0.60;;;0.60;;
17638;SDS011;8938;53.546;9.954;2023-11-22T08:14:46;0.63;;;0.63;;
17638;SDS011;8938;53.546;9.954;2023-11-22T08:17:11;0.80;;;0.80;;
17638;SDS011;8938;53.546;9.954;2023-11-22T08:19:38;0.47;;;0.47;;
17638;SDS011;8938;53.546;9.954;2023-11-22T08:22:05;0.60;;;0.60;;
17638;SDS011;8938;53.546;9.954;2023-11-22T08:24:31;0.50;;;0.50;;
17638;SDS011;8938;53.546;9.954;2023-11-22T08:26:57;0.50;;;0.50;;
17638;SDS011;8938;53.546;9.954;2023-11-22T08:29:23;0.60;;;0.60;;
17638;SDS011;8938;53.546;9.954;2023-11-22T08:31:49;0.60;;;0.60;;
17638;SDS011;8938;53.546;9.954;2023-11-22T08:34:16;0.70;;;0.70;;
17638;SDS011;8938;53.546;9.954;2023-11-22T08:36:42;0.70;;;0.70;;
17638;SDS011;8938;53.546;9.954;2023-11-22T08:39:08;0.60;;;0.60;;
17638;SDS011;8938;53.546;9.954;2023-11-22T08:41:33;0.67;;;0.67;;
17638;SDS011;8938;53.546;9.954;2023-11-22T08:44:00;0.70;;;0.70;;
17638;SDS011;8938;53.546;9.954;2023-11-22T08:46:26;0.70;;;0.70;;
17638;SDS011;8938;53.546;9.954;2023-11-22T08:48:52;0.57;;;0.57;;
17638;SDS011;8938;53.546;9.954;2023-11-22T08:51:18;0.50;;;0.50;;
17638;SDS011;8938;53.546;9.954;2023-11-22T08:53:44;0.63;;;0.63;;
17638;SDS011;8938;53.546;9.954;2023-11-22T08:56:10;0.80;;;0.80;;
17638;SDS011;8938;53.546;9.954;2023-11-22T08:58:37;0.60;;;0.60;;
17638;SDS011;8938;53.546;9.954;2023-11-22T09:01:03;0.80;;;0.80;;
17638;SDS011;8938;53.546;9.954;2023-11-22T09:03:30;0.70;;;0.70;;
17638;SDS011;8938;53.546;9.954;2023-11-22T09:05:56;0.80;;;0.80;;
17638;SDS011;8938;53.546;9.954;2023-11-22T09:08:22;0.60;;;0.60;;
17638;SDS011;8938;53.546;9.954;2023-11-22T09:10:48;0.77;;;0.77;;
17638;SDS011;8938;53.546;9.954;2023-11-22T09:13:15;0.60;;;0.60;;
17638;SDS011;8938;53.546;9.954;2023-11-22T09:15:41;0.60;;;0.60;;
17638;SDS011;8938;53.546;9.954;2023-11-22T09:18:09;0.60;;;0.60;;
17638;SDS011;8938;53.546;9.954;2023-11-22T09:20:35;0.60;;;0.60;;
17638;SDS011;8938;53.546;9.954;2023-11-22T09:23:01;0.63;;;0.63;;
17638;SDS011;8938;53.546;9.954;2023-11-22T09:25:29;0.60;;;0.60;;
17638;SDS011;8938;53.546;9.954;2023-11-22T09:27:56;0.77;;;0.77;;
17638;SDS011;8938;53.546;9.954;2023-11-22T09:30:25;1.73;;;1.63;;
17638;SDS011;8938;53.546;9.954;2023-11-22T09:33:01;1.70;;;1.60;;
17638;SDS011;8938;53.546;9.954;2023-11-22T09:35:28;1.50;;;1.40;;
17638;SDS011;8938;53.546;9.954;2023-11-22T09:37:55;1.30;;;1.25;;
17638;SDS011;8938;53.546;9.954;2023-11-22T09:40:21;1.20;;;1.20;;
17638;SDS011;8938;53.546;9.954;2023-11-22T09:42:47;1.02;;;1.02;;
17638;SDS011;8938;53.546;9.954;2023-11-22T09:45:19;1.10;;;1.10;;
17638;SDS011;8938;53.546;9.954;2023-11-22T09:47:45;1.70;;;1.60;;
17638;SDS011;8938;53.546;9.954;2023-11-22T09:50:17;1.27;;;1.17;;
17638;SDS011;8938;53.546;9.954;2023-11-22T09:52:49;1.15;;;1.15;;
17638;SDS011;8938;53.546;9.954;2023-11-22T09:55:16;1.63;;;1.52;;
17638;SDS011;8938;53.546;9.954;2023-11-22T09:57:42;1.23;;;1.20;;
17638;SDS011;8938;53.546;9.954;2023-11-22T10:00:08;1.50;;;1.40;;
17638;SDS011;8938;53.546;9.954;2023-11-22T10:02:39;1.83;;;1.73;;
17638;SDS011;8938;53.546;9.954;2023-11-22T10:05:05;1.50;;;1.40;;
17638;SDS011;8938;53.546;9.954;2023-11-22T10:07:33;1.65;;;1.55;;
17638;SDS011;8938;53.546;9.954;2023-11-22T10:10:01;1.70;;;1.60;;
17638;SDS011;8938;53.546;9.954;2023-11-22T10:12:30;1.33;;;1.27;;
17638;SDS011;8938;53.546;9.954;2023-11-22T10:15:10;1.60;;;1.50;;
17638;SDS011;8938;53.546;9.954;2023-11-22T10:17:37;1.52;;;1.42;;
17638;SDS011;8938;53.546;9.954;2023-11-22T10:20:03;1.70;;;1.60;;
17638;SDS011;8938;53.546;9.954;2023-11-22T10:22:29;1.33;;;1.25;;
17638;SDS011;8938;53.546;9.954;2023-11-22T10:24:58;1.40;;;1.33;;
17638;SDS011;8938;53.546;9.954;2023-11-22T10:27:26;1.35;;;1.27;;
17638;SDS011;8938;53.546;9.954;2023-11-22T10:29:51;1.20;;;1.20;;
17638;SDS011;8938;53.546;9.954;2023-11-22T10:32:17;1.35;;;1.30;;
17638;SDS011;8938;53.546;9.954;2023-11-22T10:34:43;1.65;;;1.55;;
17638;SDS011;8938;53.546;9.954;2023-11-22T10:37:09;1.73;;;1.63;;
17638;SDS011;8938;53.546;9.954;2023-11-22T10:39:35;1.27;;;1.27;;
17638;SDS011;8938;53.546;9.954;2023-11-22T10:42:02;1.75;;;1.65;;
17638;SDS011;8938;53.546;9.954;2023-11-22T10:44:33;1.73;;;1.63;;
17638;SDS011;8938;53.546;9.954;2023-11-22T10:46:59;2.17;;;2.08;;
17638;SDS011;8938;53.546;9.954;2023-11-22T10:49:25;1.48;;;1.38;;
17638;SDS011;8938;53.546;9.954;2023-11-22T10:51:52;1.60;;;1.50;;
17638;SDS011;8938;53.546;9.954;2023-11-22T10:54:19;2.72;;;1.92;;
17638;SDS011;8938;53.546;9.954;2023-11-22T10:56:46;2.65;;;1.83;;
17638;SDS011;8938;53.546;9.954;2023-11-22T10:59:16;2.00;;;1.60;;
17638;SDS011;8938;53.546;9.954;2023-11-22T11:01:47;2.72;;;1.98;;
17638;SDS011;8938;53.546;9.954;2023-11-22T11:04:17;1.83;;;1.45;;
17638;SDS011;8938;53.546;9.954;2023-11-22T11:06:46;3.47;;;2.35;;
17638;SDS011;8938;53.546;9.954;2023-11-22T11:09:16;2.72;;;1.90;;
17638;SDS011;8938;53.546;9.954;2023-11-22T11:11:46;2.45;;;1.75;;
17638;SDS011;8938;53.546;9.954;2023-11-22T11:14:12;2.55;;;1.83;;
17638;SDS011;8938;53.546;9.954;2023-11-22T11:16:40;2.72;;;2.03;;
17638;SDS011;8938;53.546;9.954;2023-11-22T11:19:12;1.63;;;1.30;;
17638;SDS011;8938;53.546;9.954;2023-11-22T11:21:39;1.63;;;1.38;;
17638;SDS011;8938;53.546;9.954;2023-11-22T11:24:05;2.83;;;2.15;;
17638;SDS011;8938;53.546;9.954;2023-11-22T11:26:32;2.88;;;1.90;;
17638;SDS011;8938;53.546;9.954;2023-11-22T11:28:59;2.75;;;2.00;;
17638;SDS011;8938;53.546;9.954;2023-11-22T11:31:25;2.30;;;1.77;;
17638;SDS011;8938;53.546;9.954;2023-11-22T11:34:07;1.73;;;1.58;;
17638;SDS011;8938;53.546;9.954;2023-11-22T11:36:33;2.45;;;1.85;;
17638;SDS011;8938;53.546;9.954;2023-11-22T11:39:02;2.47;;;1.95;;
17638;SDS011;8938;53.546;9.954;2023-11-22T11:41:34;3.30;;;2.10;;
17638;SDS011;8938;53.546;9.954;2023-11-22T11:44:02;2.33;;;1.80;;
17638;SDS011;8938;53.546;9.954;2023-11-22T11:46:29;2.35;;;1.73;;
17638;SDS011;8938;53.546;9.954;2023-11-22T11:48:55;3.08;;;2.17;;
17638;SDS011;8938;53.546;9.954;2023-11-22T11:51:22;5.28;;;2.28;;
17638;SDS011;8938;53.546;9.954;2023-11-22T11:53:49;4.18;;;2.00;;
17638;SDS011;8938;53.546;9.954;2023-11-22T11:56:15;2.90;;;1.52;;
17638;SDS011;8938;53.546;9.954;2023-11-22T11:58:42;5.78;;;2.42;;
17638;SDS011;8938;53.546;9.954;2023-11-22T12:01:08;5.03;;;2.05;;
17638;SDS011;8938;53.546;9.954;2023-11-22T12:03:35;4.57;;;2.00;;
17638;SDS011;8938;53.546;9.954;2023-11-22T12:06:02;4.07;;;1.85;;
17638;SDS011;8938;53.546;9.954;2023-11-22T12:08:28;3.75;;;1.85;;
17638;SDS011;8938;53.546;9.954;2023-11-22T12:10:56;4.72;;;2.10;;
17638;SDS011;8938;53.546;9.954;2023-11-22T12:13:24;5.88;;;2.70;;
17638;SDS011;8938;53.546;9.954;2023-11-22T12:15:51;5.32;;;2.20;;
17638;SDS011;8938;53.546;9.954;2023-11-22T12:18:21;4.80;;;2.25;;
17638;SDS011;8938;53.546;9.954;2023-11-22T12:20:54;3.78;;;1.83;;
17638;SDS011;8938;53.546;9.954;2023-11-22T12:23:21;4.20;;;1.92;;
17638;SDS011;8938;53.546;9.954;2023-11-22T12:25:47;4.70;;;2.20;;
17638;SDS011;8938;53.546;9.954;2023-11-22T12:28:16;5.78;;;2.55;;
17638;SDS011;8938;53.546;9.954;2023-11-22T12:30:43;2.72;;;1.42;;
17638;SDS011;8938;53.546;9.954;2023-11-22T12:33:10;6.47;;;2.72;;
17638;SDS011;8938;53.546;9.954;2023-11-22T12:35:42;4.07;;;1.95;;
17638;SDS011;8938;53.546;9.954;2023-11-22T12:38:09;9.60;;;3.97;;
17638;SDS011;8938;53.546;9.954;2023-11-22T12:40:36;4.25;;;2.00;;
17638;SDS011;8938;53.546;9.954;2023-11-22T12:43:02;3.92;;;1.70;;
17638;SDS011;8938;53.546;9.954;2023-11-22T12:45:33;4.55;;;2.08;;
17638;SDS011;8938;53.546;9.954;2023-11-22T12:48:19;6.78;;;2.97;;
17638;SDS011;8938;53.546;9.954;2023-11-22T12:50:46;5.05;;;2.33;;
17638;SDS011;8938;53.546;9.954;2023-11-22T12:53:12;2.80;;;1.42;;
17638;SDS011;8938;53.546;9.954;2023-11-22T12:55:42;4.57;;;2.22;;
17638;SDS011;8938;53.546;9.954;2023-11-22T12:58:13;6.03;;;2.85;;
17638;SDS011;8938;53.546;9.954;2023-11-22T13:00:39;5.47;;;2.42;;
17638;SDS011;8938;53.546;9.954;2023-11-22T13:03:08;6.22;;;2.55;;
17638;SDS011;8938;53.546;9.954;2023-11-22T13:05:35;3.13;;;1.60;;
17638;SDS011;8938;53.546;9.954;2023-11-22T13:08:01;5.88;;;2.60;;
17638;SDS011;8938;53.546;9.954;2023-11-22T13:10:28;5.35;;;2.30;;
17638;SDS011;8938;53.546;9.954;2023-11-22T13:12:55;3.53;;;1.77;;
17638;SDS011;8938;53.546;9.954;2023-11-22T13:15:21;1.85;;;1.67;;
17638;SDS011;8938;53.546;9.954;2023-11-22T13:17:52;2.83;;;2.33;;
17638;SDS011;8938;53.546;9.954;2023-11-22T13:20:24;2.75;;;2.03;;
17638;SDS011;8938;53.546;9.954;2023-11-22T13:22:51;3.03;;;2.17;;
17638;SDS011;8938;53.546;9.954;2023-11-22T13:25:17;1.65;;;1.38;;
17638;SDS011;8938;53.546;9.954;2023-11-22T13:27:47;2.85;;;2.40;;
17638;SDS011;8938;53.546;9.954;2023-11-22T13:30:17;1.75;;;1.65;;
17638;SDS011;8938;53.546;9.954;2023-11-22T13:32:47;1.77;;;1.67;;
17638;SDS011;8938;53.546;9.954;2023-11-22T13:35:14;1.00;;;1.00;;
17638;SDS011;8938;53.546;9.954;2023-11-22T13:37:46;1.60;;;1.50;;
17638;SDS011;8938;53.546;9.954;2023-11-22T13:40:13;1.65;;;1.55;;
17638;SDS011;8938;53.546;9.954;2023-11-22T13:42:43;1.90;;;1.70;;
17638;SDS011;8938;53.546;9.954;2023-11-22T13:45:10;3.42;;;2.47;;
17638;SDS011;8938;53.546;9.954;2023-11-22T13:47:37;2.22;;;1.70;;
17638;SDS011;8938;53.546;9.954;2023-11-22T13:50:03;2.88;;;2.10;;
17638;SDS011;8938;53.546;9.954;2023-11-22T13:52:29;2.97;;;2.05;;
17638;SDS011;8938;53.546;9.954;2023-11-22T13:54:55;1.55;;;1.40;;
17638;SDS011;8938;53.546;9.954;2023-11-22T13:57:22;3.45;;;2.38;;
17638;SDS011;8938;53.546;9.954;2023-11-22T13:59:48;2.40;;;1.67;;
17638;SDS011;8938;53.546;9.954;2023-11-22T14:02:16;1.48;;;1.13;;
17638;SDS011;8938;53.546;9.954;2023-11-22T14:04:42;1.92;;;1.52;;
17638;SDS011;8938;53.546;9.954;2023-11-22T14:07:09;2.50;;;1.85;;
17638;SDS011;8938;53.546;9.954;2023-11-22T14:09:35;2.13;;;1.63;;
17638;SDS011;8938;53.546;9.954;2023-11-22T14:12:01;4.00;;;2.50;;
17638;SDS011;8938;53.546;9.954;2023-11-22T14:14:27;2.40;;;1.85;;
17638;SDS011;8938;53.546;9.954;2023-11-22T14:16:53;2.22;;;1.65;;
17638;SDS011;8938;53.546;9.954;2023-11-22T14:19:19;2.72;;;1.83;;
17638;SDS011;8938;53.546;9.954;2023-11-22T14:21:45;1.77;;;1.48;;
17638;SDS011;8938;53.546;9.954;2023-11-22T14:24:12;2.88;;;2.00;;
17638;SDS011;8938;53.546;9.954;2023-11-22T14:26:38;1.90;;;1.45;;
17638;SDS011;8938;53.546;9.954;2023-11-22T14:29:04;3.63;;;1.88;;
17638;SDS011;8938;53.546;9.954;2023-11-22T14:31:31;2.60;;;1.43;;
17638;SDS011;8938;53.546;9.954;2023-11-22T14:33:57;4.07;;;1.83;;
17638;SDS011;8938;53.546;9.954;2023-11-22T14:36:24;3.75;;;1.85;;
17638;SDS011;8938;53.546;9.954;2023-11-22T14:38:51;4.75;;;2.15;;
17638;SDS011;8938;53.546;9.954;2023-11-22T14:41:21;3.25;;;1.65;;
17638;SDS011;8938;53.546;9.954;2023-11-22T14:43:47;3.20;;;1.50;;
17638;SDS011;8938;53.546;9.954;2023-11-22T14:46:13;3.47;;;1.83;;
17638;SDS011;8938;53.546;9.954;2023-11-22T14:48:39;2.87;;;1.57;;
17638;SDS011;8938;53.546;9.954;2023-11-22T14:51:05;2.42;;;1.52;;
17638;SDS011;8938;53.546;9.954;2023-11-22T14:53:34;1.17;;;0.93;;
17638;SDS011;8938;53.546;9.954;2023-11-22T14:56:00;2.63;;;1.57;;
17638;SDS011;8938;53.546;9.954;2023-11-22T14:58:27;1.48;;;0.93;;